createdAt,value
2018-03-26T00:01:29.784Z,24.23
2018-03-26T00:03:57.265Z,23.20
2018-03-26T00:06:25.507Z,24.25
2018-03-26T00:08:52.979Z,23.23
2018-03-26T00:11:20.492Z,25.60
2018-03-26T00:13:47.953Z,25.67
2018-03-26T00:16:15.466Z,24.48
2018-03-26T00:18:42.946Z,24.52
2018-03-26T00:21:11.183Z,22.92
2018-03-26T00:23:38.674Z,23.62
2018-03-26T00:26:06.906Z,23.05
2018-03-26T00:28:34.391Z,24.10
2018-03-26T00:31:01.956Z,24.67
2018-03-26T00:33:29.517Z,24.00
2018-03-26T00:35:57.733Z,22.75
2018-03-26T00:38:25.218Z,25.60
2018-03-26T00:40:52.746Z,23.50
2018-03-26T00:43:20.211Z,25.75
2018-03-26T00:45:47.668Z,24.55
2018-03-26T00:48:15.143Z,22.15
2018-03-26T00:50:42.729Z,25.50
2018-03-26T00:53:10.192Z,22.00
2018-03-26T00:55:38.429Z,23.40
2018-03-26T00:58:05.917Z,24.08
2018-03-26T01:00:34.206Z,24.40
2018-03-26T01:03:02.528Z,23.05
2018-03-26T01:05:30.000Z,23.00
2018-03-26T01:07:57.478Z,24.48
2018-03-26T01:10:24.988Z,23.10
2018-03-26T01:12:52.449Z,24.20
2018-03-26T01:15:19.937Z,22.73
2018-03-26T01:17:47.425Z,24.30
2018-03-26T01:20:15.684Z,23.87
2018-03-26T01:22:43.251Z,21.55
2018-03-26T01:25:10.708Z,22.50
2018-03-26T01:27:38.936Z,23.20
2018-03-26T01:30:06.448Z,23.77
2018-03-26T01:32:34.688Z,23.75
2018-03-26T01:35:02.146Z,23.08
2018-03-26T01:37:29.645Z,24.05
2018-03-26T01:39:57.885Z,24.65
2018-03-26T01:42:25.370Z,23.00
2018-03-26T01:44:53.607Z,24.45
2018-03-26T01:47:21.068Z,23.25
2018-03-26T01:49:48.594Z,24.15
2018-03-26T01:52:16.084Z,23.62
2018-03-26T01:54:43.550Z,22.62
2018-03-26T01:57:11.010Z,22.83
2018-03-26T01:59:38.556Z,23.02
2018-03-26T02:02:06.024Z,22.92
2018-03-26T02:04:33.519Z,25.37
2018-03-26T02:07:01.048Z,23.20
2018-03-26T02:09:28.622Z,23.12
2018-03-26T02:11:56.890Z,23.10
2018-03-26T02:14:25.165Z,23.20
2018-03-26T02:16:53.408Z,21.08
2018-03-26T02:19:20.882Z,22.00
2018-03-26T02:21:48.346Z,20.95
2018-03-26T02:24:15.916Z,20.52
2018-03-26T02:26:44.161Z,21.12
2018-03-26T02:29:11.673Z,21.20
2018-03-26T02:31:39.293Z,20.40
2018-03-26T02:36:40.593Z,21.60
2018-03-26T02:39:08.110Z,20.30
2018-03-26T02:41:35.619Z,22.15
2018-03-26T02:44:03.100Z,21.40
2018-03-26T02:46:30.587Z,20.30
2018-03-26T02:48:58.133Z,19.23
2018-03-26T02:51:25.606Z,19.73
2018-03-26T02:53:53.092Z,19.00
2018-03-26T02:56:20.604Z,22.77
2018-03-26T02:58:48.107Z,21.08
2018-03-26T03:01:16.333Z,21.00
2018-03-26T03:03:43.859Z,19.95
2018-03-26T03:06:11.340Z,21.48
2018-03-26T03:08:38.796Z,21.08
2018-03-26T03:11:06.328Z,22.13
2018-03-26T03:13:33.808Z,22.33
2018-03-26T03:16:01.293Z,20.27
2018-03-26T03:18:28.803Z,23.62
2018-03-26T03:20:56.304Z,21.87
2018-03-26T03:23:24.591Z,21.65
2018-03-26T03:25:52.129Z,21.77
2018-03-26T03:28:19.612Z,21.65
2018-03-26T03:30:47.863Z,20.12
2018-03-26T03:33:15.342Z,22.40
2018-03-26T03:35:43.614Z,22.27
2018-03-26T03:38:11.068Z,22.35
2018-03-26T03:40:39.551Z,20.80
2018-03-26T03:43:07.094Z,22.02
2018-03-26T03:45:34.572Z,22.75
2018-03-26T03:48:02.794Z,23.55
2018-03-26T03:50:30.287Z,22.52
2018-03-26T03:52:57.857Z,22.60
2018-03-26T03:55:25.514Z,19.92
2018-03-26T03:57:53.764Z,22.05
2018-03-26T04:00:21.318Z,21.42
2018-03-26T04:02:48.791Z,20.23
2018-03-26T04:05:16.284Z,23.10
2018-03-26T04:07:44.508Z,21.95
2018-03-26T04:10:12.011Z,20.23
2018-03-26T04:12:40.286Z,22.33
2018-03-26T04:15:08.501Z,21.15
2018-03-26T04:17:35.971Z,21.50
2018-03-26T04:20:03.428Z,21.37
2018-03-26T04:22:30.897Z,20.98
2018-03-26T04:24:58.470Z,23.15
2018-03-26T04:27:25.949Z,22.73
2018-03-26T04:29:54.176Z,20.75
2018-03-26T04:32:21.669Z,21.30
2018-03-26T04:34:49.904Z,22.95
2018-03-26T04:37:17.492Z,22.25
2018-03-26T04:39:45.053Z,21.83
2018-03-26T04:42:12.532Z,21.23
2018-03-26T04:44:40.837Z,23.52
2018-03-26T04:47:08.336Z,21.17
2018-03-26T04:49:35.892Z,23.05
2018-03-26T04:52:03.370Z,21.58
2018-03-26T04:54:31.616Z,22.83
2018-03-26T04:56:59.085Z,22.87
2018-03-26T04:59:26.682Z,21.05
2018-03-26T05:01:54.145Z,21.60
2018-03-26T05:04:21.679Z,22.20
2018-03-26T05:06:49.955Z,21.40
2018-03-26T05:09:18.214Z,22.75
2018-03-26T05:11:45.672Z,20.77
2018-03-26T05:14:13.166Z,22.30
2018-03-26T05:16:40.630Z,22.25
2018-03-26T05:19:08.093Z,22.25
2018-03-26T05:21:35.570Z,23.73
2018-03-26T05:24:03.049Z,22.60
2018-03-26T05:26:30.520Z,21.77
2018-03-26T05:28:58.004Z,21.95
2018-03-26T05:31:25.534Z,23.25
2018-03-26T05:33:53.770Z,23.12
2018-03-26T05:36:21.228Z,23.15
2018-03-26T05:38:48.693Z,24.40
2018-03-26T05:41:16.269Z,22.05
2018-03-26T05:43:43.852Z,22.42
2018-03-26T05:46:12.113Z,22.30
2018-03-26T05:48:39.657Z,22.25
2018-03-26T05:51:07.235Z,23.98
2018-03-26T05:53:35.479Z,21.80
2018-03-26T05:56:02.944Z,22.05
2018-03-26T05:58:30.527Z,23.20
2018-03-26T06:00:57.995Z,25.25
2018-03-26T06:03:26.220Z,24.10
2018-03-26T06:05:53.706Z,24.15
2018-03-26T06:08:21.167Z,23.90
2018-03-26T06:10:48.621Z,23.80
2018-03-26T06:13:16.189Z,24.10
2018-03-26T06:15:43.651Z,22.58
2018-03-26T06:18:11.906Z,24.73
2018-03-26T06:20:39.393Z,22.98
2018-03-26T06:23:07.646Z,23.50
2018-03-26T06:25:35.120Z,25.67
2018-03-26T06:28:03.344Z,25.65
2018-03-26T06:30:30.819Z,25.70
2018-03-26T06:32:58.310Z,23.92
2018-03-26T06:35:26.557Z,24.52
2018-03-26T06:41:02.606Z,24.17
2018-03-26T06:43:30.070Z,27.33
2018-03-26T06:45:57.550Z,23.85
2018-03-26T06:48:25.132Z,25.02
2018-03-26T06:50:53.395Z,23.33
2018-03-26T06:53:20.860Z,24.25
2018-03-26T06:55:49.084Z,22.95
2018-03-26T06:58:16.540Z,23.50
2018-03-26T07:00:44.025Z,22.73
2018-03-26T07:03:11.502Z,25.75
2018-03-26T07:05:39.102Z,24.05
2018-03-26T07:08:06.768Z,24.83
2018-03-26T07:10:34.247Z,25.37
2018-03-26T07:13:01.712Z,23.05
2018-03-26T07:15:29.236Z,24.45
2018-03-26T07:17:56.714Z,23.90
2018-03-26T07:20:24.215Z,23.75
2018-03-26T07:22:52.456Z,23.17
2018-03-26T07:25:19.927Z,23.75
2018-03-26T07:27:47.422Z,22.67
2018-03-26T07:30:14.913Z,21.73
2018-03-26T07:32:42.487Z,24.45
2018-03-26T07:35:09.970Z,21.83
2018-03-26T07:37:38.223Z,21.83
2018-03-26T07:40:05.701Z,20.33
2018-03-26T07:42:33.958Z,21.52
2018-03-26T07:45:01.442Z,22.30
2018-03-26T07:47:29.710Z,23.70
2018-03-26T07:49:57.268Z,21.45
2018-03-26T07:52:24.737Z,22.27
2018-03-26T07:54:52.985Z,20.92
2018-03-26T07:57:20.453Z,22.40
2018-03-26T07:59:48.715Z,21.60
2018-03-26T08:02:16.412Z,21.35
2018-03-26T08:04:43.883Z,21.73
2018-03-26T08:07:11.429Z,21.70
2018-03-26T08:09:39.788Z,23.20
2018-03-26T08:12:08.019Z,24.05
2018-03-26T08:14:35.498Z,20.95
2018-03-26T08:17:03.059Z,23.20
2018-03-26T08:19:31.618Z,22.90
2018-03-26T08:21:59.088Z,22.80
2018-03-26T08:24:26.674Z,24.42
2018-03-26T08:26:54.150Z,27.50
2018-03-26T08:29:22.409Z,25.67
2018-03-26T08:31:49.893Z,28.05
2018-03-26T08:34:23.189Z,25.55
2018-03-26T08:36:50.665Z,27.00
2018-03-26T08:39:18.124Z,24.98
2018-03-26T08:41:45.605Z,28.30
2018-03-26T08:44:13.093Z,28.38
2018-03-26T08:46:41.461Z,27.15
2018-03-26T08:49:09.020Z,28.15
2018-03-26T08:51:36.496Z,28.00
2018-03-26T08:54:04.713Z,28.27
2018-03-26T08:56:32.179Z,27.50
2018-03-26T08:58:59.640Z,29.35
2018-03-26T09:01:27.146Z,30.10
2018-03-26T09:03:55.395Z,28.67
2018-03-26T09:06:22.853Z,29.92
2018-03-26T09:08:50.359Z,28.52
2018-03-26T09:11:17.825Z,28.92
2018-03-26T09:13:45.313Z,31.77
2018-03-26T09:16:12.786Z,30.33
2018-03-26T09:18:41.071Z,29.70
2018-03-26T09:21:08.531Z,30.48
2018-03-26T09:23:36.787Z,30.10
2018-03-26T09:26:04.472Z,30.90
2018-03-26T09:28:32.045Z,31.65
2018-03-26T09:30:59.513Z,29.63
2018-03-26T09:33:26.987Z,32.28
2018-03-26T09:35:54.458Z,31.85
2018-03-26T09:38:21.943Z,31.90
2018-03-26T09:40:50.210Z,31.42
2018-03-26T09:43:17.774Z,31.10
2018-03-26T09:45:45.235Z,33.72
2018-03-26T09:48:13.511Z,29.70
2018-03-26T09:50:41.065Z,33.55
2018-03-26T09:53:08.534Z,32.47
2018-03-26T09:55:36.779Z,33.17
2018-03-26T09:58:04.253Z,32.60
2018-03-26T10:00:52.439Z,31.85
2018-03-26T10:03:19.909Z,33.15
2018-03-26T10:05:47.398Z,33.13
2018-03-26T10:08:14.982Z,33.60
2018-03-26T10:10:43.261Z,34.88
2018-03-26T10:13:11.673Z,32.47
2018-03-26T10:15:39.147Z,33.58
2018-03-26T10:18:06.618Z,33.42
2018-03-26T10:20:34.113Z,36.00
2018-03-26T10:23:02.386Z,35.97
2018-03-26T10:25:30.634Z,35.20
2018-03-26T10:27:58.878Z,36.67
2018-03-26T10:30:26.357Z,33.65
2018-03-26T10:32:53.838Z,33.10
2018-03-26T10:35:21.402Z,36.15
2018-03-26T10:37:49.673Z,35.25
2018-03-26T10:40:17.232Z,34.47
2018-03-26T10:42:44.713Z,34.40
2018-03-26T10:45:12.248Z,32.03
2018-03-26T10:47:40.516Z,32.95
2018-03-26T10:50:08.035Z,35.75
2018-03-26T10:52:35.506Z,33.20
2018-03-26T10:55:07.908Z,34.58
2018-03-26T10:57:36.148Z,32.67
2018-03-26T11:00:03.613Z,33.55
2018-03-26T11:02:31.095Z,30.85
2018-03-26T11:04:59.333Z,33.08
2018-03-26T11:07:26.929Z,33.22
2018-03-26T11:09:54.393Z,36.47
2018-03-26T11:12:21.895Z,40.42
2018-03-26T11:14:49.364Z,35.88
2018-03-26T11:17:16.902Z,34.50
2018-03-26T11:19:44.414Z,32.00
2018-03-26T11:22:11.917Z,30.50
2018-03-26T11:24:39.435Z,32.60
2018-03-26T11:27:07.692Z,32.38
2018-03-26T11:29:35.253Z,33.78
2018-03-26T11:32:02.826Z,33.40
2018-03-26T11:34:30.315Z,32.50
2018-03-26T11:36:57.845Z,31.15
2018-03-26T11:39:25.333Z,30.73
2018-03-26T11:41:52.793Z,32.17
2018-03-26T11:44:20.255Z,31.70
2018-03-26T11:46:47.737Z,30.17
2018-03-26T11:49:15.320Z,27.95
2018-03-26T11:51:43.580Z,25.45
2018-03-26T11:54:11.032Z,22.45
2018-03-26T11:56:38.526Z,23.55
2018-03-26T11:59:06.798Z,23.62
2018-03-26T12:01:35.049Z,21.85
2018-03-26T12:04:02.511Z,25.02
2018-03-26T12:06:30.074Z,25.35
2018-03-26T12:08:57.604Z,25.60
2018-03-26T12:11:25.791Z,24.12
2018-03-26T12:13:53.275Z,25.52
2018-03-26T12:16:21.516Z,24.23
2018-03-26T12:18:48.998Z,26.87
2018-03-26T12:21:16.479Z,28.85
2018-03-26T12:23:56.631Z,28.95
2018-03-26T12:26:24.873Z,28.10
2018-03-26T12:29:04.304Z,29.25
2018-03-26T12:31:31.771Z,27.27
2018-03-26T12:34:11.187Z,28.77
2018-03-26T12:36:38.685Z,26.08
2018-03-26T12:39:06.930Z,29.83
2018-03-26T12:41:34.398Z,27.60
2018-03-26T12:44:01.862Z,29.17
2018-03-26T12:46:36.246Z,27.75
2018-03-26T12:49:03.715Z,30.88
2018-03-26T12:51:43.291Z,26.70
2018-03-26T12:54:11.524Z,25.17
2018-03-26T12:56:39.023Z,24.60
2018-03-26T12:59:07.260Z,25.20
2018-03-26T13:01:46.776Z,23.80
2018-03-26T13:04:14.406Z,22.60
2018-03-26T13:06:42.679Z,22.60
2018-03-26T13:09:10.923Z,23.38
2018-03-26T13:11:38.383Z,22.35
2018-03-26T13:14:05.943Z,21.45
2018-03-26T13:16:34.178Z,21.08
2018-03-26T13:19:01.659Z,22.35
2018-03-26T13:21:29.134Z,19.75
2018-03-26T13:23:56.647Z,18.12
2018-03-26T13:26:24.114Z,15.80
2018-03-26T13:28:51.586Z,16.00
2018-03-26T13:31:19.060Z,15.82
2018-03-26T13:33:46.566Z,15.70
2018-03-26T13:36:14.084Z,15.95
2018-03-26T13:38:41.564Z,14.15
2018-03-26T13:41:09.796Z,15.65
2018-03-26T13:43:37.256Z,15.27
2018-03-26T13:46:04.726Z,13.75
2018-03-26T13:48:32.301Z,15.25
2018-03-26T13:51:00.574Z,13.85
2018-03-26T13:53:28.814Z,12.27
2018-03-26T13:55:56.294Z,11.98
2018-03-26T13:58:23.826Z,11.98
2018-03-26T14:00:51.312Z,11.10
2018-03-26T14:03:18.793Z,10.93
2018-03-26T14:05:47.030Z,11.57
2018-03-26T14:08:26.380Z,11.43
2018-03-26T14:11:05.832Z,9.98
2018-03-26T14:16:45.760Z,10.25
2018-03-26T14:19:13.253Z,8.85
2018-03-26T14:21:41.508Z,10.57
2018-03-26T14:24:09.086Z,9.98
2018-03-26T14:26:37.320Z,10.10
2018-03-26T14:29:04.794Z,10.98
2018-03-26T14:31:32.290Z,10.05
2018-03-26T14:33:59.794Z,10.15
2018-03-26T14:36:27.279Z,10.00
2018-03-26T14:38:54.766Z,10.07
2018-03-26T14:41:22.245Z,9.02
2018-03-26T14:43:49.738Z,9.68
2018-03-26T14:46:17.225Z,9.60
2018-03-26T14:48:45.474Z,8.88
2018-03-26T14:51:12.953Z,8.07
2018-03-26T14:53:41.318Z,9.25
2018-03-26T14:56:08.784Z,9.05
2018-03-26T14:58:37.050Z,8.70
2018-03-26T15:01:05.300Z,8.30
2018-03-26T15:03:32.806Z,9.75
2018-03-26T15:06:00.279Z,9.88
2018-03-26T15:08:27.877Z,10.00
2018-03-26T15:10:55.375Z,8.40
2018-03-26T15:13:23.612Z,8.52
2018-03-26T15:15:51.087Z,7.85
2018-03-26T15:18:18.574Z,8.00
2018-03-26T15:20:46.105Z,7.93
2018-03-26T15:23:14.368Z,7.68
2018-03-26T15:25:41.855Z,7.87
2018-03-26T15:28:09.393Z,7.10
2018-03-26T15:30:37.654Z,6.60
2018-03-26T15:33:05.220Z,5.63
2018-03-26T15:35:32.708Z,5.40
2018-03-26T15:38:00.961Z,6.23
2018-03-26T15:40:28.440Z,5.67
2018-03-26T15:42:56.678Z,6.27
2018-03-26T15:45:24.259Z,6.07
2018-03-26T15:47:51.739Z,6.00
2018-03-26T15:50:18.722Z,5.50
2018-03-26T15:52:46.219Z,5.10
2018-03-26T15:55:14.467Z,5.03
2018-03-26T15:57:41.950Z,5.77
2018-03-26T16:00:09.436Z,6.40
2018-03-26T16:05:41.809Z,5.18
2018-03-26T16:08:10.052Z,5.70
2018-03-26T16:10:37.683Z,5.72
2018-03-26T16:13:05.173Z,5.17
2018-03-26T16:15:32.637Z,5.07
2018-03-26T16:18:00.198Z,4.93
2018-03-26T16:20:28.473Z,4.80
2018-03-26T16:22:56.020Z,5.60
2018-03-26T16:25:23.486Z,6.00
2018-03-26T16:27:50.947Z,5.70
2018-03-26T16:30:18.423Z,5.27
2018-03-26T16:32:46.685Z,5.57
2018-03-26T16:35:14.143Z,4.90
2018-03-26T16:37:42.792Z,4.97
2018-03-26T16:40:10.286Z,5.23
2018-03-26T16:42:44.398Z,4.70
2018-03-26T16:45:12.643Z,5.90
2018-03-26T16:47:40.115Z,6.50
2018-03-26T16:50:07.717Z,6.17
2018-03-26T16:52:35.234Z,5.57
2018-03-26T16:55:02.720Z,5.87
2018-03-26T16:57:30.260Z,5.78
2018-03-26T16:59:57.746Z,6.05
2018-03-26T17:02:25.322Z,6.00
2018-03-26T17:04:52.814Z,6.30
2018-03-26T17:07:20.273Z,5.78
2018-03-26T17:09:47.724Z,5.37
2018-03-26T17:12:15.184Z,5.57
2018-03-26T17:14:42.655Z,5.70
2018-03-26T17:17:10.125Z,5.62
2018-03-26T17:19:38.392Z,5.30
2018-03-26T17:22:05.987Z,6.05
2018-03-26T17:24:34.212Z,5.87
2018-03-26T17:27:01.685Z,5.93
2018-03-26T17:29:29.232Z,6.12
2018-03-26T17:31:56.716Z,6.10
2018-03-26T17:34:25.023Z,6.55
2018-03-26T17:36:52.491Z,6.68
2018-03-26T17:39:19.987Z,6.20
2018-03-26T17:41:47.460Z,6.25
2018-03-26T17:44:15.709Z,6.35
2018-03-26T17:46:43.207Z,5.50
2018-03-26T17:49:10.725Z,6.80
2018-03-26T17:51:39.695Z,6.75
2018-03-26T17:54:07.179Z,5.72
2018-03-26T17:56:34.662Z,5.30
2018-03-26T17:59:02.907Z,5.30
2018-03-26T18:01:31.130Z,6.30
2018-03-26T18:03:58.640Z,7.10
2018-03-26T18:06:26.198Z,5.30
2018-03-26T18:08:53.689Z,5.70
2018-03-26T18:11:21.934Z,6.30
2018-03-26T18:13:49.441Z,5.97
2018-03-26T18:16:16.896Z,5.82
2018-03-26T18:18:44.353Z,5.80
2018-03-26T18:21:11.930Z,6.70
2018-03-26T18:23:39.325Z,6.72
2018-03-26T18:26:06.876Z,6.62
2018-03-26T18:28:34.329Z,5.50
2018-03-26T18:31:01.891Z,6.30
2018-03-26T18:33:29.458Z,5.40
2018-03-26T18:35:56.923Z,5.90
2018-03-26T18:38:25.185Z,6.28
2018-03-26T18:40:52.650Z,6.90
2018-03-26T18:43:20.112Z,6.50
2018-03-26T18:45:48.358Z,6.95
2018-03-26T18:48:15.845Z,6.35
2018-03-26T18:50:44.069Z,5.80
2018-03-26T18:53:11.554Z,6.28
2018-03-26T18:55:39.022Z,6.30
2018-03-26T18:58:06.503Z,6.28
2018-03-26T19:00:34.767Z,6.55
2018-03-26T19:03:03.026Z,6.35
2018-03-26T19:05:30.477Z,6.22
2018-03-26T19:07:58.042Z,5.22
2018-03-26T19:10:25.592Z,6.60
2018-03-26T19:12:53.165Z,6.85
2018-03-26T19:15:20.653Z,5.60
2018-03-26T19:17:48.227Z,6.47
2018-03-26T19:20:15.747Z,6.60
2018-03-26T19:22:44.012Z,6.32
2018-03-26T19:25:11.574Z,5.90
2018-03-26T19:27:39.127Z,6.68
2018-03-26T19:30:06.599Z,6.53
2018-03-26T19:32:34.850Z,6.40
2018-03-26T19:35:02.308Z,5.95
2018-03-26T19:37:29.763Z,6.60
2018-03-26T19:39:57.380Z,6.20
2018-03-26T19:42:24.791Z,6.95
2018-03-26T19:44:52.344Z,6.45
2018-03-26T19:47:19.905Z,6.10
2018-03-26T19:49:47.364Z,7.12
2018-03-26T19:52:14.862Z,6.12
2018-03-26T19:54:42.333Z,6.60
2018-03-26T19:57:09.831Z,6.22
2018-03-26T19:59:37.329Z,6.50
2018-03-26T20:02:04.784Z,7.30
2018-03-26T20:04:32.244Z,7.50
2018-03-26T20:06:59.727Z,7.75
2018-03-26T20:09:27.188Z,6.65
2018-03-26T20:11:54.677Z,8.18
2018-03-26T20:14:22.249Z,7.85
2018-03-26T20:16:49.788Z,14.10
2018-03-26T20:19:18.075Z,17.00
2018-03-26T20:21:45.637Z,12.02
2018-03-26T20:24:13.118Z,15.07
2018-03-26T20:26:40.688Z,10.45
2018-03-26T20:29:08.175Z,8.95
2018-03-26T20:31:35.644Z,6.87
2018-03-26T20:34:03.225Z,8.55
2018-03-26T20:36:31.478Z,9.13
2018-03-26T20:38:58.979Z,10.45
2018-03-26T20:41:27.246Z,8.10
2018-03-26T20:43:55.584Z,10.10
2018-03-26T20:46:23.112Z,8.27
2018-03-26T20:48:50.613Z,7.97
2018-03-26T20:51:18.196Z,8.23
2018-03-26T20:53:46.453Z,7.97
2018-03-26T20:56:13.922Z,6.05
2018-03-26T20:58:42.148Z,7.18
2018-03-26T21:01:09.616Z,8.00
2018-03-26T21:03:37.116Z,7.05
2018-03-26T21:06:05.364Z,7.50
2018-03-26T21:08:32.828Z,7.50
2018-03-26T21:11:00.310Z,7.72
2018-03-26T21:13:28.581Z,7.05
2018-03-26T21:15:56.859Z,8.43
2018-03-26T21:18:25.119Z,7.87
2018-03-26T21:20:52.614Z,7.82
2018-03-26T21:23:20.228Z,7.10
2018-03-26T21:25:48.500Z,8.00
2018-03-26T21:28:16.068Z,6.95
2018-03-26T21:30:43.578Z,8.27
2018-03-26T21:33:11.051Z,7.70
2018-03-26T21:35:38.516Z,7.37
2018-03-26T21:38:06.042Z,7.87
2018-03-26T21:40:33.488Z,8.20
2018-03-26T21:43:00.958Z,6.82
2018-03-26T21:45:28.474Z,7.37
2018-03-26T21:47:56.020Z,7.20
2018-03-26T21:50:23.487Z,7.57
2018-03-26T21:52:51.724Z,7.32
2018-03-26T21:55:19.211Z,8.00
2018-03-26T21:57:46.693Z,7.78
2018-03-26T22:00:18.529Z,7.78
2018-03-26T22:02:46.005Z,7.50
2018-03-26T22:05:14.266Z,7.40
2018-03-26T22:07:42.526Z,7.72
2018-03-26T22:10:10.113Z,8.57
2018-03-26T22:12:38.347Z,8.32
2018-03-26T22:15:05.810Z,8.48
2018-03-26T22:17:33.326Z,7.65
2018-03-26T22:20:00.798Z,8.23
2018-03-26T22:22:28.292Z,8.45
2018-03-26T22:24:55.767Z,9.00
2018-03-26T22:27:23.996Z,9.50
2018-03-26T22:29:51.496Z,8.93
2018-03-26T22:32:18.953Z,9.82
2018-03-26T22:34:47.223Z,8.77
2018-03-26T22:37:14.678Z,9.30
2018-03-26T22:39:42.242Z,9.75
2018-03-26T22:42:09.704Z,8.02
2018-03-26T22:44:38.060Z,8.13
2018-03-26T22:47:05.529Z,7.80
2018-03-26T22:49:32.997Z,8.10
2018-03-26T22:52:01.311Z,7.70
2018-03-26T22:54:28.766Z,8.77
2018-03-26T22:56:56.254Z,8.48
2018-03-26T22:59:23.733Z,8.38
2018-03-26T23:01:51.285Z,7.40
2018-03-26T23:04:19.518Z,8.73
2018-03-26T23:06:47.028Z,7.85
2018-03-26T23:09:14.489Z,7.50
2018-03-26T23:11:42.763Z,7.12
2018-03-26T23:14:10.233Z,7.10
2018-03-26T23:16:38.488Z,5.72
2018-03-26T23:19:06.132Z,7.10
2018-03-26T23:21:33.596Z,7.35
2018-03-26T23:24:02.565Z,6.90
2018-03-26T23:26:30.061Z,7.53
2018-03-26T23:28:57.519Z,6.50
2018-03-26T23:31:25.017Z,6.40
2018-03-26T23:33:52.616Z,5.95
2018-03-26T23:36:20.197Z,6.35
2018-03-26T23:38:48.440Z,6.70
2018-03-26T23:41:15.919Z,5.50
2018-03-26T23:43:44.323Z,5.15
2018-03-26T23:46:11.886Z,6.05
2018-03-26T23:48:39.430Z,5.45
2018-03-26T23:51:07.661Z,5.37
2018-03-26T23:53:35.161Z,5.05
2018-03-26T23:56:03.376Z,5.62
2018-03-26T23:58:30.889Z,5.18
